createdAt,value
2023-04-26T00:01:06.499Z,97917.25
2023-04-26T00:03:36.927Z,97930.66
2023-04-26T00:06:06.750Z,97928.31
2023-04-26T00:08:33.260Z,97917.91
2023-04-26T00:10:59.832Z,97916.81
2023-04-26T00:13:28.540Z,97923.75
2023-04-26T00:15:55.459Z,97928.78
2023-04-26T00:18:22.023Z,97926.09
2023-04-26T00:20:48.864Z,97927.97
2023-04-26T00:23:15.789Z,97931.22
2023-04-26T00:25:42.653Z,97928.53
2023-04-26T00:28:11.264Z,97928.53
2023-04-26T00:30:41.231Z,97925.56
2023-04-26T00:33:09.940Z,97926.56
2023-04-26T00:35:40.120Z,97916.94
2023-04-26T00:38:06.645Z,97925.56
2023-04-26T00:40:35.489Z,97922.31
2023-04-26T00:43:05.310Z,97913.78
2023-04-26T00:45:37.964Z,97917.59
2023-04-26T00:48:05.413Z,97915.38
2023-04-26T00:50:33.090Z,97910.78
2023-04-26T00:53:00.848Z,97902.75
2023-04-26T00:55:27.614Z,97907.00
2023-04-26T00:58:03.380Z,97908.34
2023-04-26T01:00:32.204Z,97909.78
2023-04-26T01:02:59.594Z,97910.88
2023-04-26T01:05:26.529Z,97905.84
2023-04-26T01:07:53.360Z,97911.88
2023-04-26T01:10:20.061Z,97913.41
2023-04-26T01:12:48.176Z,97910.31
2023-04-26T01:15:14.777Z,97910.31
2023-04-26T01:17:41.386Z,97902.94
2023-04-26T01:20:12.175Z,97904.28
2023-04-26T01:22:38.633Z,97914.81
2023-04-26T01:25:09.251Z,97913.66
2023-04-26T01:27:36.482Z,97911.41
2023-04-26T01:30:03.502Z,97907.09
2023-04-26T01:32:31.875Z,97909.06
2023-04-26T01:35:02.393Z,97904.50
2023-04-26T01:37:28.921Z,97907.50
2023-04-26T01:39:55.809Z,97905.94
2023-04-26T01:42:30.952Z,97902.16
2023-04-26T01:44:58.790Z,97893.47
2023-04-26T01:47:26.584Z,97902.41
2023-04-26T01:49:53.425Z,97897.94
2023-04-26T01:52:20.029Z,97899.38
2023-04-26T01:54:46.805Z,97887.78
2023-04-26T01:57:13.388Z,97896.03
2023-04-26T01:59:39.920Z,97891.94
2023-04-26T02:02:07.050Z,97898.88
2023-04-26T02:04:33.947Z,97890.16
2023-04-26T02:07:00.696Z,97896.88
2023-04-26T02:09:27.278Z,97901.44
2023-04-26T02:11:55.966Z,97894.19
2023-04-26T02:14:22.537Z,97901.13
2023-04-26T02:16:49.271Z,97900.47
2023-04-26T02:19:24.242Z,97901.56
2023-04-26T02:21:55.828Z,97894.44
2023-04-26T02:24:23.192Z,97900.38
2023-04-26T02:26:51.984Z,97891.59
2023-04-26T02:29:22.656Z,97896.28
2023-04-26T02:31:53.605Z,97894.38
2023-04-26T02:34:20.509Z,97894.28
2023-04-26T02:36:46.957Z,97901.44
2023-04-26T02:39:20.073Z,97905.66
2023-04-26T02:41:46.833Z,97902.09
2023-04-26T02:44:13.366Z,97899.00
2023-04-26T02:46:41.870Z,97898.75
2023-04-26T02:49:08.467Z,97892.84
2023-04-26T02:51:35.440Z,97901.66
2023-04-26T02:54:04.565Z,97895.53
2023-04-26T02:56:32.286Z,97893.97
2023-04-26T02:58:58.829Z,97895.88
2023-04-26T03:01:25.726Z,97899.44
2023-04-26T03:03:52.479Z,97897.09
2023-04-26T03:06:19.046Z,97897.22
2023-04-26T03:08:45.893Z,97894.28
2023-04-26T03:11:12.474Z,97891.59
2023-04-26T03:13:39.008Z,97888.69
2023-04-26T03:16:08.398Z,97882.41
2023-04-26T03:18:34.953Z,97881.97
2023-04-26T03:21:01.595Z,97880.22
2023-04-26T03:23:31.110Z,97881.78
2023-04-26T03:25:57.597Z,97882.75
2023-04-26T03:28:24.280Z,97881.84
2023-04-26T03:30:51.208Z,97882.84
2023-04-26T03:33:19.980Z,97879.72
2023-04-26T03:35:46.678Z,97875.03
2023-04-26T03:38:13.467Z,97872.38
2023-04-26T03:40:40.111Z,97876.59
2023-04-26T03:43:06.919Z,97882.19
2023-04-26T03:45:35.379Z,97873.25
2023-04-26T03:48:01.947Z,97882.38
2023-04-26T03:50:28.490Z,97880.69
2023-04-26T03:53:01.249Z,97879.13
2023-04-26T03:55:36.372Z,97874.28
2023-04-26T03:58:04.650Z,97875.88
2023-04-26T04:00:33.064Z,97879.97
2023-04-26T04:03:01.402Z,97868.84
2023-04-26T04:05:28.132Z,97866.16
2023-04-26T04:07:54.777Z,97866.94
2023-04-26T04:10:27.910Z,97858.66
2023-04-26T04:12:56.439Z,97862.09
2023-04-26T04:15:23.477Z,97865.25
2023-04-26T04:17:50.337Z,97862.91
2023-04-26T04:20:17.034Z,97861.66
2023-04-26T04:22:43.625Z,97866.28
2023-04-26T04:25:16.922Z,97871.22
2023-04-26T04:27:43.585Z,97870.63
2023-04-26T04:30:10.642Z,97869.63
2023-04-26T04:32:40.465Z,97874.66
2023-04-26T04:35:07.692Z,97880.41
2023-04-26T04:37:35.241Z,97885.19
2023-04-26T04:40:01.969Z,97880.34
2023-04-26T04:42:28.490Z,97884.94
2023-04-26T04:44:57.621Z,97883.25
2023-04-26T04:47:24.610Z,97883.69
2023-04-26T04:49:54.191Z,97888.13
2023-04-26T04:52:23.321Z,97885.00
2023-04-26T04:54:51.584Z,97881.09
2023-04-26T04:57:18.929Z,97893.97
2023-04-26T04:59:45.431Z,97890.28
2023-04-26T05:02:13.837Z,97898.28
2023-04-26T05:04:40.573Z,97895.28
2023-04-26T05:07:07.875Z,97905.34
2023-04-26T05:09:36.351Z,97895.44
2023-04-26T05:12:03.213Z,97894.78
2023-04-26T05:14:30.586Z,97906.59
2023-04-26T05:16:59.399Z,97905.94
2023-04-26T05:19:26.068Z,97901.06
2023-04-26T05:21:53.218Z,97904.19
2023-04-26T05:24:20.155Z,97914.88
2023-04-26T05:26:47.547Z,97914.47
2023-04-26T05:29:14.147Z,97918.53
2023-04-26T05:31:45.658Z,97922.00
2023-04-26T05:34:12.158Z,97925.59
2023-04-26T05:36:38.661Z,97919.78
2023-04-26T05:39:10.317Z,97926.03
2023-04-26T05:41:36.834Z,97920.38
2023-04-26T05:44:06.707Z,97925.50
2023-04-26T05:46:41.411Z,97923.31
2023-04-26T05:49:07.992Z,97928.41
2023-04-26T05:51:34.554Z,97925.44
2023-04-26T05:54:01.366Z,97930.47
2023-04-26T05:56:27.860Z,97930.03
2023-04-26T05:58:54.363Z,97932.13
2023-04-26T06:01:21.385Z,97934.72
2023-04-26T06:03:48.276Z,97941.91
2023-04-26T06:06:15.931Z,97933.19
2023-04-26T06:08:43.286Z,97940.13
2023-04-26T06:11:09.845Z,97940.06
2023-04-26T06:13:39.696Z,97935.28
2023-04-26T06:16:08.197Z,97951.16
2023-04-26T06:18:34.678Z,97952.06
2023-04-26T06:21:01.166Z,97945.91
2023-04-26T06:23:29.598Z,97948.53
2023-04-26T06:25:56.067Z,97945.84
2023-04-26T06:28:22.640Z,97952.22
2023-04-26T06:30:49.473Z,97951.69
2023-04-26T06:33:17.788Z,97961.97
2023-04-26T06:35:44.337Z,97954.50
2023-04-26T06:38:19.123Z,97944.78
2023-04-26T06:40:45.782Z,97948.16
2023-04-26T06:43:12.286Z,97947.63
2023-04-26T06:45:45.424Z,97943.50
2023-04-26T06:48:12.194Z,97939.34
2023-04-26T06:50:41.785Z,97938.03
2023-04-26T06:53:08.534Z,97932.09
2023-04-26T06:55:37.232Z,97938.47
2023-04-26T06:58:03.797Z,97937.09
2023-04-26T07:00:32.524Z,97927.94
2023-04-26T07:02:59.254Z,97941.13
2023-04-26T07:05:26.085Z,97937.88
2023-04-26T07:08:01.331Z,97938.00
2023-04-26T07:10:27.967Z,97937.66
2023-04-26T07:12:54.459Z,97924.91
2023-04-26T07:15:26.033Z,97919.28
2023-04-26T07:17:52.527Z,97919.50
2023-04-26T07:20:22.978Z,97924.50
2023-04-26T07:22:50.147Z,97921.47
2023-04-26T07:25:17.403Z,97925.84
2023-04-26T07:27:43.959Z,97925.13
2023-04-26T07:30:12.716Z,97917.00
2023-04-26T07:32:41.783Z,97919.16
2023-04-26T07:35:10.548Z,97918.53
2023-04-26T07:37:37.705Z,97921.31
2023-04-26T07:40:05.119Z,97915.00
2023-04-26T07:42:31.947Z,97921.78
2023-04-26T07:44:58.530Z,97923.03
2023-04-26T07:47:25.068Z,97917.06
2023-04-26T07:49:54.750Z,97916.19
2023-04-26T07:52:25.698Z,97919.19
2023-04-26T07:54:52.227Z,97912.09
2023-04-26T07:57:18.747Z,97912.97
2023-04-26T07:59:50.533Z,97920.09
2023-04-26T08:02:17.190Z,97906.50
2023-04-26T08:04:50.125Z,97910.59
2023-04-26T08:07:17.233Z,97915.91
2023-04-26T08:09:43.854Z,97909.94
2023-04-26T08:12:12.536Z,97910.81
2023-04-26T08:14:39.416Z,97910.97
2023-04-26T08:17:07.129Z,97904.44
2023-04-26T08:19:34.301Z,97898.09
2023-04-26T08:22:01.230Z,97901.44
2023-04-26T08:24:27.777Z,97900.31
2023-04-26T08:26:55.425Z,97909.47
2023-04-26T08:29:26.457Z,97915.84
2023-04-26T08:31:53.076Z,97909.13
2023-04-26T08:34:19.562Z,97904.38
2023-04-26T08:36:47.908Z,97902.13
2023-04-26T08:39:18.212Z,97904.59
2023-04-26T08:41:50.378Z,97909.28
2023-04-26T08:44:23.328Z,97906.31
2023-04-26T08:47:16.912Z,97904.84
2023-04-26T08:49:48.781Z,97898.41
2023-04-26T08:52:17.288Z,97904.28
2023-04-26T08:54:48.851Z,97900.81
2023-04-26T08:57:15.932Z,97899.25
2023-04-26T08:59:44.293Z,97902.03
2023-04-26T09:02:17.507Z,97898.28
2023-04-26T09:07:44.219Z,97904.59
2023-04-26T09:10:13.552Z,97904.22
2023-04-26T09:12:40.921Z,97899.34
2023-04-26T09:15:08.702Z,97888.47
2023-04-26T09:17:41.394Z,97892.47
2023-04-26T09:20:30.694Z,97889.41
2023-04-26T09:23:03.633Z,97891.09
2023-04-26T09:25:37.140Z,97884.16
2023-04-26T09:28:18.641Z,97880.69
2023-04-26T09:30:51.872Z,97890.38
2023-04-26T09:33:19.615Z,97885.28
2023-04-26T09:35:49.639Z,97882.56
2023-04-26T09:38:17.801Z,97881.75
2023-04-26T09:40:49.559Z,97885.63
2023-04-26T09:43:20.911Z,97884.91
2023-04-26T09:45:56.568Z,97888.75
2023-04-26T09:48:30.471Z,97873.97
2023-04-26T09:50:59.557Z,97878.25
2023-04-26T09:53:45.733Z,97887.16
2023-04-26T09:56:21.952Z,97885.59
2023-04-26T09:58:52.492Z,97877.84
2023-04-26T10:01:21.533Z,97870.91
2023-04-26T10:03:48.445Z,97873.97
2023-04-26T10:06:16.250Z,97871.59
2023-04-26T10:08:43.442Z,97870.88
2023-04-26T10:11:12.901Z,97861.16
2023-04-26T10:13:47.531Z,97870.38
2023-04-26T10:16:14.266Z,97875.47
2023-04-26T10:18:41.066Z,97866.97
2023-04-26T10:21:13.139Z,97868.00
2023-04-26T10:23:40.994Z,97861.25
2023-04-26T10:26:07.668Z,97859.75
2023-04-26T10:28:41.911Z,97864.28
2023-04-26T10:31:08.421Z,97860.34
2023-04-26T10:33:35.147Z,97854.38
2023-04-26T10:36:08.144Z,97851.19
2023-04-26T10:38:37.324Z,97835.78
2023-04-26T10:41:35.404Z,97846.75
2023-04-26T10:44:41.268Z,97852.91
2023-04-26T10:47:20.787Z,97849.41
2023-04-26T10:49:48.305Z,97847.94
2023-04-26T10:52:20.260Z,97842.38
2023-04-26T10:55:00.305Z,97841.41
2023-04-26T10:57:48.938Z,97842.47
2023-04-26T11:00:23.520Z,97837.69
2023-04-26T11:02:51.891Z,97839.38
2023-04-26T11:05:49.344Z,97836.94
2023-04-26T11:08:19.792Z,97832.19
2023-04-26T11:11:10.986Z,97832.63
2023-04-26T11:13:42.606Z,97836.34
2023-04-26T11:16:11.233Z,97828.69
2023-04-26T11:18:42.466Z,97832.44
2023-04-26T11:21:10.508Z,97828.94
2023-04-26T11:23:37.551Z,97822.75
2023-04-26T11:26:10.299Z,97820.44
2023-04-26T11:28:38.363Z,97815.19
2023-04-26T11:31:07.276Z,97822.19
2023-04-26T11:33:38.951Z,97815.09
2023-04-26T11:36:05.925Z,97821.94
2023-04-26T11:38:32.462Z,97819.00
2023-04-26T11:41:03.777Z,97813.59
2023-04-26T11:43:35.611Z,97813.00
2023-04-26T11:46:03.283Z,97818.59
2023-04-26T11:48:37.409Z,97806.94
2023-04-26T11:51:05.277Z,97798.88
2023-04-26T11:53:37.810Z,97806.09
2023-04-26T11:56:25.401Z,97801.03
2023-04-26T11:58:53.107Z,97806.44
2023-04-26T12:01:24.564Z,97799.34
2023-04-26T12:03:59.361Z,97804.34
2023-04-26T12:06:31.029Z,97804.84
2023-04-26T12:08:57.487Z,97805.59
2023-04-26T12:11:26.535Z,97799.50
2023-04-26T12:13:53.051Z,97795.97
2023-04-26T12:16:26.071Z,97805.88
2023-04-26T12:18:57.010Z,97798.50
2023-04-26T12:21:30.856Z,97802.44
2023-04-26T12:23:57.839Z,97795.66
2023-04-26T12:26:48.949Z,97798.09
2023-04-26T12:29:15.770Z,97798.09
2023-04-26T12:31:43.058Z,97798.84
2023-04-26T12:34:09.747Z,97801.03
2023-04-26T12:36:38.189Z,97799.78
2023-04-26T12:39:05.475Z,97800.66
2023-04-26T12:41:32.080Z,97790.59
2023-04-26T12:43:58.714Z,97794.69
2023-04-26T12:46:26.207Z,97800.00
2023-04-26T12:48:53.495Z,97796.66
2023-04-26T12:51:25.633Z,97793.84
2023-04-26T12:53:52.108Z,97798.81
2023-04-26T12:56:18.955Z,97793.25
2023-04-26T12:58:51.574Z,97787.09
2023-04-26T13:01:20.522Z,97785.91
2023-04-26T13:03:55.612Z,97788.66
2023-04-26T13:06:28.829Z,97777.81
2023-04-26T13:08:58.838Z,97777.13
2023-04-26T13:11:25.482Z,97775.19
2023-04-26T13:13:54.346Z,97776.75
2023-04-26T13:16:22.790Z,97775.41
2023-04-26T13:18:49.343Z,97770.50
2023-04-26T13:21:17.680Z,97773.91
2023-04-26T13:23:44.194Z,97773.81
2023-04-26T13:26:10.840Z,97767.38
2023-04-26T13:28:43.845Z,97768.97
2023-04-26T13:31:10.489Z,97762.09
2023-04-26T13:33:37.043Z,97756.00
2023-04-26T13:36:04.041Z,97758.00
2023-04-26T13:38:32.353Z,97763.53
2023-04-26T13:40:59.438Z,97750.41
2023-04-26T13:43:26.255Z,97756.06
2023-04-26T13:45:52.853Z,97753.19
2023-04-26T13:48:24.814Z,97754.72
2023-04-26T13:50:53.086Z,97759.63
2023-04-26T13:53:19.963Z,97760.56
2023-04-26T13:55:46.528Z,97751.13
2023-04-26T13:58:14.963Z,97751.78
2023-04-26T14:00:42.065Z,97753.31
2023-04-26T14:03:08.859Z,97753.38
2023-04-26T14:05:37.393Z,97752.00
2023-04-26T14:08:03.998Z,97755.44
2023-04-26T14:10:30.915Z,97756.88
2023-04-26T14:13:03.901Z,97751.41
2023-04-26T14:15:30.385Z,97750.78
2023-04-26T14:17:57.012Z,97758.19
2023-04-26T14:20:25.267Z,97755.31
2023-04-26T14:22:51.855Z,97752.97
2023-04-26T14:25:18.977Z,97759.19
2023-04-26T14:27:47.238Z,97753.81
2023-04-26T14:30:14.438Z,97753.13
2023-04-26T14:32:41.526Z,97751.50
2023-04-26T14:35:14.317Z,97751.19
2023-04-26T14:37:40.814Z,97745.13
2023-04-26T14:40:08.099Z,97748.03
2023-04-26T14:42:34.853Z,97746.53
2023-04-26T14:45:01.525Z,97743.59
2023-04-26T14:47:29.323Z,97740.28
2023-04-26T14:49:59.352Z,97746.44
2023-04-26T14:52:28.010Z,97742.03
2023-04-26T14:54:54.713Z,97735.47
2023-04-26T14:57:34.081Z,97740.81
2023-04-26T15:00:06.849Z,97736.31
2023-04-26T15:02:35.910Z,97729.56
2023-04-26T15:05:05.885Z,97732.09
2023-04-26T15:07:33.166Z,97727.56
2023-04-26T15:10:00.612Z,97727.13
2023-04-26T15:12:28.130Z,97730.25
2023-04-26T15:14:58.410Z,97731.22
2023-04-26T15:17:24.942Z,97722.47
2023-04-26T15:19:57.579Z,97725.19
2023-04-26T15:22:24.191Z,97725.94
2023-04-26T15:24:51.188Z,97731.41
2023-04-26T15:27:19.696Z,97730.19
2023-04-26T15:29:49.718Z,97745.94
2023-04-26T15:32:16.346Z,97734.47
2023-04-26T15:34:43.924Z,97736.06
2023-04-26T15:37:10.730Z,97741.97
2023-04-26T15:39:37.610Z,97740.38
2023-04-26T15:42:07.461Z,97748.69
2023-04-26T15:44:34.012Z,97747.16
2023-04-26T15:47:03.876Z,97748.75
2023-04-26T15:49:32.679Z,97742.66
2023-04-26T15:52:01.274Z,97740.69
2023-04-26T15:54:27.977Z,97741.34
2023-04-26T15:56:55.417Z,97736.28
2023-04-26T15:59:21.927Z,97740.25
2023-04-26T16:01:51.746Z,97739.38
2023-04-26T16:04:18.627Z,97734.72
2023-04-26T16:06:45.445Z,97734.63
2023-04-26T16:09:24.650Z,97724.66
2023-04-26T16:11:58.904Z,97737.13
2023-04-26T16:14:25.392Z,97735.25
2023-04-26T16:16:51.877Z,97728.06
2023-04-26T16:19:18.534Z,97729.66
2023-04-26T16:21:45.082Z,97731.66
2023-04-26T16:24:13.970Z,97735.13
2023-04-26T16:26:42.839Z,97741.31
2023-04-26T16:29:09.395Z,97741.53
2023-04-26T16:31:35.967Z,97732.25
2023-04-26T16:34:11.247Z,97730.28
2023-04-26T16:36:40.307Z,97733.28
2023-04-26T16:39:07.686Z,97733.75
2023-04-26T16:41:34.628Z,97731.56
2023-04-26T16:44:01.160Z,97736.28
2023-04-26T16:46:28.077Z,97739.09
2023-04-26T16:48:56.398Z,97738.34
2023-04-26T16:51:23.356Z,97742.69
2023-04-26T16:53:50.055Z,97745.50
2023-04-26T16:56:16.926Z,97747.41
2023-04-26T16:58:47.076Z,97743.13
2023-04-26T17:01:13.658Z,97733.03
2023-04-26T17:03:42.141Z,97743.19
2023-04-26T17:06:10.335Z,97738.16
2023-04-26T17:08:36.973Z,97742.53
2023-04-26T17:11:09.623Z,97738.31
2023-04-26T17:13:36.155Z,97742.66
2023-04-26T17:16:02.726Z,97738.06
2023-04-26T17:18:29.386Z,97745.09
2023-04-26T17:20:56.435Z,97740.47
2023-04-26T17:23:23.070Z,97745.91
2023-04-26T17:25:53.276Z,97742.84
2023-04-26T17:28:21.232Z,97751.06
2023-04-26T17:30:47.811Z,97748.28
2023-04-26T17:33:23.373Z,97755.66
2023-04-26T17:35:51.901Z,97756.03
2023-04-26T17:38:18.390Z,97754.88
2023-04-26T17:40:49.490Z,97759.09
2023-04-26T17:43:16.190Z,97756.38
2023-04-26T17:45:42.716Z,97758.34
2023-04-26T17:48:14.684Z,97754.88
2023-04-26T17:50:41.372Z,97744.84
2023-04-26T17:53:08.684Z,97753.00
2023-04-26T17:55:37.133Z,97754.56
2023-04-26T17:58:03.673Z,97755.38
2023-04-26T18:00:36.248Z,97755.78
2023-04-26T18:03:05.176Z,97755.06
2023-04-26T18:05:32.269Z,97749.66
2023-04-26T18:07:59.188Z,97753.56
2023-04-26T18:10:27.714Z,97759.44
2023-04-26T18:12:54.230Z,97759.09
2023-04-26T18:15:20.951Z,97756.78
2023-04-26T18:17:56.111Z,97763.84
2023-04-26T18:20:22.831Z,97758.03
2023-04-26T18:22:49.463Z,97759.97
2023-04-26T18:25:17.748Z,97748.38
2023-04-26T18:27:44.345Z,97760.03
2023-04-26T18:30:12.800Z,97763.91
2023-04-26T18:32:39.487Z,97768.19
2023-04-26T18:35:06.590Z,97773.25
2023-04-26T18:37:33.219Z,97771.31
2023-04-26T18:39:59.916Z,97782.19
2023-04-26T18:42:26.767Z,97776.38
2023-04-26T18:44:53.552Z,97772.44
2023-04-26T18:47:20.080Z,97780.16
2023-04-26T18:49:46.935Z,97788.63
2023-04-26T18:52:13.835Z,97790.53
2023-04-26T18:54:48.673Z,97788.94
2023-04-26T18:57:15.687Z,97792.41
2023-04-26T18:59:42.185Z,97797.81
2023-04-26T19:02:08.817Z,97807.47
2023-04-26T19:04:35.624Z,97811.72
2023-04-26T19:07:07.950Z,97812.41
2023-04-26T19:09:46.531Z,97810.09
2023-04-26T19:12:13.810Z,97814.72
2023-04-26T19:14:42.191Z,97819.31
2023-04-26T19:17:08.686Z,97815.81
2023-04-26T19:19:35.164Z,97817.72
2023-04-26T19:22:05.204Z,97829.28
2023-04-26T19:24:34.213Z,97828.47
2023-04-26T19:27:00.888Z,97827.22
2023-04-26T19:29:27.592Z,97835.78
2023-04-26T19:31:54.187Z,97840.81
2023-04-26T19:34:21.620Z,97839.66
2023-04-26T19:36:54.847Z,97848.47
2023-04-26T19:39:23.583Z,97847.63
2023-04-26T19:41:54.137Z,97843.69
2023-04-26T19:44:20.728Z,97847.88
2023-04-26T19:46:47.276Z,97843.56
2023-04-26T19:49:13.796Z,97844.69
2023-04-26T19:51:40.421Z,97845.81
2023-04-26T19:54:07.460Z,97843.84
2023-04-26T19:56:33.983Z,97842.66
2023-04-26T19:59:02.447Z,97841.47
2023-04-26T20:01:30.953Z,97846.50
2023-04-26T20:03:57.878Z,97846.50
2023-04-26T20:06:26.304Z,97851.91
2023-04-26T20:08:52.937Z,97862.00
2023-04-26T20:11:19.795Z,97862.41
2023-04-26T20:13:52.904Z,97865.13
2023-04-26T20:16:20.034Z,97863.63
2023-04-26T20:18:46.539Z,97858.16
2023-04-26T20:21:19.291Z,97860.81
2023-04-26T20:23:47.761Z,97866.22
2023-04-26T20:26:14.280Z,97864.31
2023-04-26T20:28:42.549Z,97867.41
2023-04-26T20:31:09.480Z,97865.88
2023-04-26T20:33:36.166Z,97872.00
2023-04-26T20:36:04.499Z,97868.84
2023-04-26T20:38:31.003Z,97866.59
2023-04-26T20:40:57.537Z,97862.28
2023-04-26T20:43:26.393Z,97870.41
2023-04-26T20:45:55.000Z,97863.78
2023-04-26T20:48:22.193Z,97867.25
2023-04-26T20:50:50.456Z,97871.09
2023-04-26T20:53:17.129Z,97870.72
2023-04-26T20:55:43.927Z,97861.84
2023-04-26T20:58:10.662Z,97869.94
2023-04-26T21:00:37.311Z,97871.09
2023-04-26T21:03:04.204Z,97877.63
2023-04-26T21:05:32.728Z,97873.97
2023-04-26T21:07:59.273Z,97872.31
2023-04-26T21:10:25.913Z,97874.56
2023-04-26T21:13:01.118Z,97874.88
2023-04-26T21:15:27.695Z,97871.00
2023-04-26T21:17:54.436Z,97873.72
2023-04-26T21:20:21.214Z,97874.44
2023-04-26T21:22:48.024Z,97877.88
2023-04-26T21:27:42.578Z,97878.22
2023-04-26T21:30:09.638Z,97875.13
2023-04-26T21:32:37.706Z,97878.97
2023-04-26T21:35:13.303Z,97878.97
2023-04-26T21:37:39.808Z,97886.31
2023-04-26T21:40:08.067Z,97877.88
2023-04-26T21:42:34.762Z,97884.47
2023-04-26T21:45:05.654Z,97879.03
2023-04-26T21:47:32.448Z,97874.34
2023-04-26T21:50:00.722Z,97883.19
2023-04-26T21:52:27.253Z,97874.63
2023-04-26T21:54:54.037Z,97881.16
2023-04-26T21:57:25.784Z,97876.56
2023-04-26T21:59:52.272Z,97885.38
2023-04-26T22:02:19.148Z,97881.13
2023-04-26T22:04:45.895Z,97883.06
2023-04-26T22:07:14.767Z,97878.78
2023-04-26T22:09:41.301Z,97879.16
2023-04-26T22:12:07.996Z,97881.84
2023-04-26T22:14:34.474Z,97883.81
2023-04-26T22:17:03.053Z,97887.34
2023-04-26T22:19:31.727Z,97896.59
2023-04-26T22:21:58.361Z,97892.34
2023-04-26T22:24:24.943Z,97891.97
2023-04-26T22:26:53.202Z,97892.34
2023-04-26T22:29:20.039Z,97889.97
2023-04-26T22:31:46.567Z,97896.88
2023-04-26T22:34:13.164Z,97899.47
2023-04-26T22:36:39.754Z,97895.50
2023-04-26T22:39:06.527Z,97893.53
2023-04-26T22:41:39.663Z,97895.41
2023-04-26T22:44:06.146Z,97894.56
2023-04-26T22:46:32.641Z,97897.63
2023-04-26T22:49:07.821Z,97898.75
2023-04-26T22:51:34.311Z,97902.94
2023-04-26T22:54:01.313Z,97908.75
2023-04-26T22:56:27.925Z,97906.91
2023-04-26T22:58:54.630Z,97905.00
2023-04-26T23:01:21.271Z,97912.34
2023-04-26T23:03:49.558Z,97913.91
2023-04-26T23:06:16.178Z,97907.72
2023-04-26T23:08:42.635Z,97915.47
2023-04-26T23:11:14.619Z,97909.25
2023-04-26T23:13:41.346Z,97914.09
2023-04-26T23:16:07.962Z,97909.78
2023-04-26T23:18:35.426Z,97917.09
2023-04-26T23:21:03.971Z,97920.59
2023-04-26T23:23:30.660Z,97912.50
2023-04-26T23:25:57.297Z,97908.97
2023-04-26T23:28:23.831Z,97914.66
2023-04-26T23:30:52.244Z,97913.50
2023-04-26T23:33:18.873Z,97915.50
2023-04-26T23:35:45.566Z,97918.63
2023-04-26T23:38:12.005Z,97909.72
2023-04-26T23:40:38.724Z,97901.25
2023-04-26T23:43:06.273Z,97902.00
2023-04-26T23:45:33.078Z,97901.22
2023-04-26T23:48:01.439Z,97895.81
2023-04-26T23:50:28.009Z,97892.34
2023-04-26T23:52:54.697Z,97889.16
2023-04-26T23:55:23.367Z,97897.16
2023-04-26T23:57:49.873Z,97907.56
